createdAt,value
2023-05-07T00:01:54.612Z,0.68
2023-05-07T00:04:46.613Z,0.72
2023-05-07T00:07:38.155Z,0.68
2023-05-07T00:10:29.841Z,0.70
2023-05-07T00:13:21.168Z,0.72
2023-05-07T00:16:12.589Z,0.68
2023-05-07T00:19:04.275Z,0.70
2023-05-07T00:21:57.014Z,0.70
2023-05-07T00:24:48.574Z,0.78
2023-05-07T00:27:40.428Z,0.70
2023-05-07T00:30:32.038Z,0.70
2023-05-07T00:33:23.941Z,0.62
2023-05-07T00:36:15.172Z,0.80
2023-05-07T00:39:06.877Z,0.98
2023-05-07T00:41:58.502Z,0.82
2023-05-07T00:44:50.044Z,0.75
2023-05-07T00:47:41.795Z,0.70
2023-05-07T00:50:34.074Z,0.70
2023-05-07T00:53:25.669Z,0.70
2023-05-07T00:56:17.351Z,0.60
2023-05-07T00:59:09.434Z,0.90
2023-05-07T01:02:03.616Z,0.80
2023-05-07T01:04:57.838Z,0.70
2023-05-07T01:07:51.096Z,0.80
2023-05-07T01:10:45.279Z,0.82
2023-05-07T01:13:37.892Z,0.80
2023-05-07T01:16:30.064Z,0.70
2023-05-07T01:19:22.684Z,0.70
2023-05-07T01:22:17.282Z,0.70
2023-05-07T01:25:12.828Z,0.70
2023-05-07T01:28:07.033Z,0.70
2023-05-07T01:31:03.524Z,0.68
2023-05-07T01:33:56.299Z,0.75
2023-05-07T01:36:49.305Z,0.70
2023-05-07T01:39:43.511Z,0.82
2023-05-07T01:45:25.505Z,0.70
2023-05-07T01:51:00.932Z,0.70
2023-05-07T01:53:54.568Z,0.80
2023-05-07T01:56:46.343Z,1.05
2023-05-07T01:59:37.669Z,0.82
2023-05-07T02:02:29.433Z,0.70
2023-05-07T02:05:21.230Z,0.80
2023-05-07T02:08:14.433Z,1.00
2023-05-07T02:11:06.363Z,0.78
2023-05-07T02:13:59.086Z,0.80
2023-05-07T02:16:50.776Z,0.80
2023-05-07T02:19:43.239Z,0.70
2023-05-07T02:22:35.158Z,0.90
2023-05-07T02:25:26.925Z,0.90
2023-05-07T02:28:18.897Z,1.00
2023-05-07T02:31:11.654Z,0.90
2023-05-07T02:34:03.300Z,0.88
2023-05-07T02:36:54.897Z,0.80
2023-05-07T02:39:50.316Z,0.80
2023-05-07T02:42:41.829Z,0.80
2023-05-07T02:45:33.300Z,0.98
2023-05-07T02:51:20.289Z,0.90
2023-05-07T02:54:11.838Z,1.10
2023-05-07T02:57:04.431Z,0.90
2023-05-07T02:59:56.360Z,1.20
2023-05-07T03:02:49.541Z,1.22
2023-05-07T03:05:41.160Z,0.90
2023-05-07T03:08:32.727Z,0.85
2023-05-07T03:11:23.911Z,0.80
2023-05-07T03:14:14.950Z,1.20
2023-05-07T03:17:06.573Z,0.70
2023-05-07T03:19:57.887Z,0.90
2023-05-07T03:22:49.916Z,0.90
2023-05-07T03:25:47.993Z,0.80
2023-05-07T03:28:42.502Z,0.90
2023-05-07T03:31:36.878Z,0.98
2023-05-07T03:34:28.592Z,0.88
2023-05-07T03:37:20.349Z,0.80
2023-05-07T03:40:14.387Z,0.90
2023-05-07T03:43:07.578Z,1.00
2023-05-07T03:46:00.654Z,0.90
2023-05-07T03:48:52.986Z,1.20
2023-05-07T03:51:45.763Z,1.07
2023-05-07T03:54:37.464Z,1.27
2023-05-07T03:57:28.977Z,1.35
2023-05-07T04:00:23.427Z,1.47
2023-05-07T04:03:13.841Z,0.90
2023-05-07T04:06:08.618Z,1.10
2023-05-07T04:09:00.800Z,1.32
2023-05-07T04:11:52.442Z,1.10
2023-05-07T04:14:44.115Z,1.10
2023-05-07T04:17:36.510Z,1.27
2023-05-07T04:20:29.225Z,1.35
2023-05-07T04:23:22.898Z,1.27
2023-05-07T04:26:14.696Z,1.15
2023-05-07T04:29:08.071Z,1.10
2023-05-07T04:32:00.388Z,1.32
2023-05-07T04:34:52.203Z,1.05
2023-05-07T04:37:44.294Z,1.30
2023-05-07T04:40:37.936Z,1.20
2023-05-07T04:43:29.901Z,1.22
2023-05-07T04:46:21.666Z,1.37
2023-05-07T04:49:14.661Z,1.22
2023-05-07T04:52:06.544Z,1.10
2023-05-07T04:54:58.298Z,1.10
2023-05-07T04:57:50.132Z,1.42
2023-05-07T05:00:45.468Z,1.72
2023-05-07T05:03:37.572Z,1.35
2023-05-07T05:06:29.256Z,1.27
2023-05-07T05:09:20.953Z,1.67
2023-05-07T05:12:12.531Z,1.40
2023-05-07T05:15:04.205Z,1.40
2023-05-07T05:17:56.705Z,1.50
2023-05-07T05:20:48.968Z,1.70
2023-05-07T05:23:43.480Z,1.50
2023-05-07T05:26:36.350Z,1.50
2023-05-07T05:29:27.977Z,1.40
2023-05-07T05:32:19.512Z,1.65
2023-05-07T05:35:13.695Z,1.85
2023-05-07T05:38:06.122Z,1.57
2023-05-07T05:40:58.619Z,1.47
2023-05-07T05:43:51.086Z,1.30
2023-05-07T05:46:43.311Z,1.50
2023-05-07T05:49:35.742Z,1.67
2023-05-07T05:52:28.819Z,1.42
2023-05-07T05:55:21.242Z,1.60
2023-05-07T05:58:13.492Z,1.30
2023-05-07T06:01:06.867Z,1.30
2023-05-07T06:03:59.976Z,1.47
2023-05-07T06:06:53.019Z,1.45
2023-05-07T06:09:45.500Z,1.27
2023-05-07T06:12:37.521Z,1.50
2023-05-07T06:15:31.763Z,1.50
2023-05-07T06:18:27.192Z,1.45
2023-05-07T06:21:18.572Z,1.17
2023-05-07T06:24:13.662Z,1.30
2023-05-07T06:29:44.833Z,1.45
2023-05-07T06:32:38.991Z,1.37
2023-05-07T06:35:30.336Z,1.15
2023-05-07T06:38:21.800Z,1.20
2023-05-07T06:41:13.571Z,1.15
2023-05-07T06:44:05.191Z,1.25
2023-05-07T06:47:03.674Z,1.40
2023-05-07T06:49:56.650Z,1.32
2023-05-07T06:52:50.324Z,0.90
2023-05-07T06:55:42.756Z,1.10
2023-05-07T06:58:34.594Z,1.50
2023-05-07T07:01:26.429Z,1.20
2023-05-07T07:04:18.140Z,1.20
2023-05-07T07:07:16.314Z,1.15
2023-05-07T07:10:10.951Z,1.20
2023-05-07T07:13:02.793Z,1.12
2023-05-07T07:15:54.728Z,1.00
2023-05-07T07:18:54.986Z,1.05
2023-05-07T07:21:54.682Z,1.17
2023-05-07T07:24:46.349Z,1.10
2023-05-07T07:27:44.350Z,1.15
2023-05-07T07:30:36.602Z,1.20
2023-05-07T07:33:28.096Z,1.37
2023-05-07T07:36:23.333Z,1.10
2023-05-07T07:39:14.831Z,1.10
2023-05-07T07:42:07.172Z,1.40
2023-05-07T07:45:04.124Z,1.27
2023-05-07T07:47:58.728Z,1.43
2023-05-07T07:50:53.209Z,1.07
2023-05-07T07:53:44.777Z,1.30
2023-05-07T07:56:38.068Z,1.35
2023-05-07T07:59:30.782Z,1.50
2023-05-07T08:02:24.188Z,1.15
2023-05-07T08:05:16.455Z,1.20
2023-05-07T08:08:08.869Z,1.27
2023-05-07T08:11:01.279Z,1.05
2023-05-07T08:13:55.755Z,1.12
2023-05-07T08:16:47.634Z,1.30
2023-05-07T08:19:39.619Z,1.20
2023-05-07T08:22:33.015Z,1.27
2023-05-07T08:25:25.135Z,1.20
2023-05-07T08:28:16.542Z,1.30
2023-05-07T08:31:07.891Z,1.30
2023-05-07T08:34:02.167Z,1.25
2023-05-07T08:36:53.469Z,1.45
2023-05-07T08:39:46.184Z,1.20
2023-05-07T08:45:22.377Z,1.20
2023-05-07T08:48:18.172Z,1.57
2023-05-07T08:51:19.365Z,1.30
2023-05-07T08:54:11.723Z,1.52
2023-05-07T08:57:03.857Z,1.15
2023-05-07T08:59:57.017Z,1.15
2023-05-07T09:02:49.330Z,1.22
2023-05-07T09:05:41.152Z,1.20
2023-05-07T09:08:34.915Z,1.30
2023-05-07T09:11:27.356Z,1.55
2023-05-07T09:14:22.172Z,1.20
2023-05-07T09:17:14.078Z,1.22
2023-05-07T09:20:11.213Z,1.02
2023-05-07T09:23:03.356Z,1.10
2023-05-07T09:25:58.076Z,1.47
2023-05-07T09:28:50.399Z,1.72
2023-05-07T09:31:42.187Z,2.20
2023-05-07T09:34:35.376Z,2.17
2023-05-07T09:37:29.435Z,1.87
2023-05-07T09:40:34.196Z,2.00
2023-05-07T09:43:27.498Z,1.92
2023-05-07T09:46:25.036Z,1.62
2023-05-07T09:49:21.024Z,2.72
2023-05-07T09:52:14.828Z,1.17
2023-05-07T09:55:11.948Z,1.25
2023-05-07T09:58:04.658Z,1.50
2023-05-07T10:01:00.640Z,1.10
2023-05-07T10:03:54.989Z,1.22
2023-05-07T10:06:50.279Z,1.10
2023-05-07T10:09:44.445Z,0.80
2023-05-07T10:12:41.299Z,0.90
2023-05-07T10:15:37.188Z,0.60
2023-05-07T10:18:31.198Z,0.72
2023-05-07T10:21:26.957Z,0.82
2023-05-07T10:24:24.820Z,0.80
2023-05-07T10:27:18.504Z,0.90
2023-05-07T10:30:16.523Z,0.90
2023-05-07T10:33:10.552Z,0.95
2023-05-07T10:36:05.682Z,0.93
2023-05-07T10:38:57.391Z,0.60
2023-05-07T10:41:50.401Z,0.85
2023-05-07T10:44:42.937Z,1.00
2023-05-07T10:47:37.211Z,0.90
2023-05-07T10:50:34.004Z,0.70
2023-05-07T10:53:31.753Z,0.78
2023-05-07T10:56:45.431Z,1.05
2023-05-07T10:59:44.908Z,0.93
2023-05-07T11:03:12.933Z,0.88
2023-05-07T11:06:20.626Z,0.80
2023-05-07T11:09:22.533Z,0.82
2023-05-07T11:12:37.348Z,1.00
2023-05-07T11:16:06.755Z,1.62
2023-05-07T11:19:01.213Z,0.90
2023-05-07T11:21:56.173Z,0.70
2023-05-07T11:24:55.204Z,0.80
2023-05-07T11:27:52.485Z,0.80
2023-05-07T11:30:48.479Z,0.80
2023-05-07T11:34:07.128Z,0.90
2023-05-07T11:37:02.008Z,0.90
2023-05-07T11:40:10.074Z,0.88
2023-05-07T11:43:04.987Z,0.80
2023-05-07T11:46:02.502Z,0.45
2023-05-07T11:48:56.994Z,0.80
2023-05-07T11:54:28.474Z,0.70
2023-05-07T11:57:19.955Z,0.72
2023-05-07T12:00:13.501Z,0.75
2023-05-07T12:05:45.398Z,1.07
2023-05-07T12:08:38.801Z,0.70
2023-05-07T12:11:30.208Z,0.70
2023-05-07T12:14:21.911Z,0.78
2023-05-07T12:17:14.776Z,0.72
2023-05-07T12:20:07.600Z,1.02
2023-05-07T12:25:41.036Z,1.07
2023-05-07T12:28:40.503Z,0.95
2023-05-07T12:31:32.985Z,0.80
2023-05-07T12:34:27.504Z,0.85
2023-05-07T12:37:18.745Z,1.00
2023-05-07T12:40:12.489Z,0.90
2023-05-07T12:43:05.595Z,0.80
2023-05-07T12:45:58.982Z,0.90
2023-05-07T12:48:50.778Z,0.90
2023-05-07T12:51:42.203Z,0.70
2023-05-07T12:54:35.601Z,0.85
2023-05-07T12:57:26.982Z,0.90
2023-05-07T13:00:20.078Z,1.05
2023-05-07T13:03:12.268Z,1.15
2023-05-07T13:06:06.008Z,0.90
2023-05-07T13:08:57.513Z,0.70
2023-05-07T13:11:49.227Z,0.68
2023-05-07T13:14:40.920Z,1.10
2023-05-07T13:17:32.953Z,0.90
2023-05-07T13:20:24.507Z,0.90
2023-05-07T13:23:15.880Z,1.00
2023-05-07T13:26:18.854Z,1.02
2023-05-07T13:29:00.574Z,0.80
2023-05-07T13:31:52.064Z,0.60
2023-05-07T13:34:43.505Z,0.70
2023-05-07T13:37:34.926Z,0.80
2023-05-07T13:40:27.161Z,0.70
2023-05-07T13:43:19.889Z,1.10
2023-05-07T13:46:11.279Z,0.90
2023-05-07T13:49:02.813Z,1.05
2023-05-07T13:51:54.397Z,0.80
2023-05-07T13:54:46.291Z,0.80
2023-05-07T13:57:37.911Z,1.00
2023-05-07T14:00:30.594Z,0.98
2023-05-07T14:03:21.924Z,0.90
2023-05-07T14:06:13.389Z,0.80
2023-05-07T14:09:06.273Z,0.80
2023-05-07T14:11:57.766Z,0.93
2023-05-07T14:14:51.017Z,0.80
2023-05-07T14:17:42.663Z,0.68
2023-05-07T14:20:34.108Z,0.78
2023-05-07T14:23:27.496Z,0.80
2023-05-07T14:26:18.826Z,0.80
2023-05-07T14:29:18.408Z,0.80
2023-05-07T14:32:11.322Z,1.00
2023-05-07T14:38:00.649Z,1.00
2023-05-07T14:40:53.311Z,0.80
2023-05-07T14:43:51.675Z,0.90
2023-05-07T14:46:43.083Z,0.90
2023-05-07T14:49:34.762Z,0.90
2023-05-07T14:52:27.219Z,0.65
2023-05-07T14:55:22.130Z,0.78
2023-05-07T14:58:14.859Z,1.00
2023-05-07T15:01:11.940Z,0.90
2023-05-07T15:04:04.662Z,0.90
2023-05-07T15:06:57.174Z,0.90
2023-05-07T15:09:48.536Z,0.80
2023-05-07T15:12:40.014Z,0.78
2023-05-07T15:15:31.676Z,0.70
2023-05-07T15:18:37.148Z,0.70
2023-05-07T15:21:29.330Z,0.70
2023-05-07T15:24:24.763Z,0.40
2023-05-07T15:27:17.793Z,0.57
2023-05-07T15:30:15.369Z,0.50
2023-05-07T15:33:07.042Z,0.70
2023-05-07T15:38:36.912Z,1.00
2023-05-07T15:41:28.924Z,0.60
2023-05-07T15:44:20.388Z,0.60
2023-05-07T15:47:11.640Z,0.60
2023-05-07T15:50:03.073Z,0.72
2023-05-07T15:52:54.921Z,0.50
2023-05-07T15:58:24.286Z,0.50
2023-05-07T16:01:15.605Z,0.40
2023-05-07T16:04:08.031Z,0.53
2023-05-07T16:06:59.452Z,0.60
2023-05-07T16:09:50.953Z,0.47
2023-05-07T16:12:42.351Z,0.35
2023-05-07T16:15:33.491Z,0.50
2023-05-07T16:18:24.895Z,0.40
2023-05-07T16:21:16.323Z,0.23
2023-05-07T16:24:07.879Z,0.50
2023-05-07T16:26:59.296Z,0.37
2023-05-07T16:29:50.625Z,0.50
2023-05-07T16:32:42.255Z,0.50
2023-05-07T16:35:33.806Z,0.40
2023-05-07T16:38:27.066Z,0.40
2023-05-07T16:41:18.295Z,0.62
2023-05-07T16:44:09.857Z,0.50
2023-05-07T16:47:01.696Z,0.82
2023-05-07T16:49:53.260Z,0.82
2023-05-07T16:55:23.668Z,0.93
2023-05-07T16:58:15.498Z,1.25
2023-05-07T17:03:45.300Z,1.50
2023-05-07T17:06:36.986Z,1.40
2023-05-07T17:09:28.451Z,0.80
2023-05-07T17:12:19.871Z,0.90
2023-05-07T17:15:13.227Z,0.60
2023-05-07T17:20:50.503Z,0.90
2023-05-07T17:23:41.979Z,0.40
2023-05-07T17:26:35.174Z,0.40
2023-05-07T17:32:07.749Z,0.98
2023-05-07T17:35:01.825Z,1.20
2023-05-07T17:37:54.448Z,0.65
2023-05-07T17:43:27.664Z,0.78
2023-05-07T17:46:19.475Z,1.47
2023-05-07T17:49:11.069Z,1.87
2023-05-07T17:52:02.126Z,1.90
2023-05-07T17:54:53.607Z,2.10
2023-05-07T17:57:45.211Z,2.15
2023-05-07T18:00:37.693Z,1.10
2023-05-07T18:03:30.720Z,1.70
2023-05-07T18:06:23.446Z,0.72
2023-05-07T18:11:54.036Z,0.40
2023-05-07T18:17:26.716Z,0.40
2023-05-07T18:20:18.930Z,0.40
2023-05-07T18:23:10.595Z,0.30
2023-05-07T18:26:01.720Z,0.50
2023-05-07T18:31:31.401Z,0.35
2023-05-07T18:34:22.827Z,0.40
2023-05-07T18:37:14.553Z,0.40
2023-05-07T18:40:07.459Z,0.40
2023-05-07T18:42:58.755Z,0.20
2023-05-07T18:45:50.890Z,0.30
2023-05-07T18:51:27.327Z,0.40
2023-05-07T18:54:18.419Z,0.20
2023-05-07T18:57:09.602Z,0.10
2023-05-07T19:00:01.045Z,0.25
2023-05-07T19:02:52.457Z,0.10
2023-05-07T19:05:44.353Z,0.10
2023-05-07T19:08:35.550Z,0.28
2023-05-07T19:14:06.952Z,0.20
2023-05-07T19:16:58.228Z,0.10
2023-05-07T19:19:49.961Z,0.10
2023-05-07T19:22:41.443Z,0.20
2023-05-07T19:25:32.794Z,0.30
2023-05-07T19:28:23.950Z,0.20
2023-05-07T19:31:21.969Z,0.28
2023-05-07T19:34:14.403Z,0.40
2023-05-07T19:37:07.184Z,0.20
2023-05-07T19:39:58.698Z,0.15
2023-05-07T19:42:51.798Z,0.20
2023-05-07T19:45:43.752Z,0.20
2023-05-07T19:48:35.199Z,0.10
2023-05-07T19:51:26.670Z,0.20
2023-05-07T19:54:18.297Z,0.20
2023-05-07T19:57:09.710Z,0.10
2023-05-07T20:00:01.483Z,0.25
2023-05-07T20:02:53.245Z,0.25
2023-05-07T20:08:24.861Z,0.10
2023-05-07T20:11:16.166Z,0.28
2023-05-07T20:14:07.656Z,0.30
2023-05-07T20:16:58.975Z,0.30
2023-05-07T20:19:50.305Z,0.62
2023-05-07T20:22:41.721Z,0.50
2023-05-07T20:25:33.032Z,1.42
2023-05-07T20:28:25.059Z,0.60
2023-05-07T20:31:16.784Z,0.40
2023-05-07T20:34:08.263Z,0.40
2023-05-07T20:36:59.839Z,0.50
2023-05-07T20:39:51.119Z,0.50
2023-05-07T20:42:44.116Z,0.60
2023-05-07T20:45:35.500Z,0.40
2023-05-07T20:48:28.677Z,0.47
2023-05-07T20:51:19.770Z,0.78
2023-05-07T20:54:11.978Z,0.60
2023-05-07T20:59:44.476Z,0.40
2023-05-07T21:02:36.132Z,0.53
2023-05-07T21:05:27.612Z,0.60
2023-05-07T21:08:19.041Z,0.40
2023-05-07T21:11:14.579Z,0.60
2023-05-07T21:14:07.445Z,0.70
2023-05-07T21:17:00.489Z,0.78
2023-05-07T21:19:52.570Z,0.70
2023-05-07T21:25:24.777Z,1.05
2023-05-07T21:28:15.991Z,1.05
2023-05-07T21:31:07.701Z,1.12
2023-05-07T21:33:58.811Z,0.80
2023-05-07T21:36:50.219Z,0.95
2023-05-07T21:39:41.713Z,0.70
2023-05-07T21:42:33.028Z,0.78
2023-05-07T21:45:24.222Z,0.70
2023-05-07T21:48:18.721Z,0.70
2023-05-07T21:51:10.258Z,0.80
2023-05-07T21:54:01.601Z,0.70
2023-05-07T21:56:53.184Z,0.70
2023-05-07T21:59:44.645Z,0.72
2023-05-07T22:02:36.531Z,0.80
2023-05-07T22:05:28.147Z,0.68
2023-05-07T22:08:19.690Z,0.60
2023-05-07T22:11:11.110Z,0.60
2023-05-07T22:14:02.318Z,0.50
2023-05-07T22:16:53.571Z,1.02
2023-05-07T22:19:44.855Z,0.65
2023-05-07T22:22:37.798Z,0.68
2023-05-07T22:25:28.766Z,0.80
2023-05-07T22:28:20.244Z,0.57
2023-05-07T22:31:12.157Z,0.50
2023-05-07T22:34:04.152Z,0.60
2023-05-07T22:36:55.263Z,0.70
2023-05-07T22:39:46.718Z,0.80
2023-05-07T22:42:37.969Z,0.90
2023-05-07T22:45:30.080Z,0.80
2023-05-07T22:48:21.839Z,0.88
2023-05-07T22:51:16.085Z,0.75
2023-05-07T22:54:09.038Z,0.70
2023-05-07T22:57:00.668Z,0.72
2023-05-07T22:59:55.627Z,1.05
2023-05-07T23:02:46.809Z,1.00
2023-05-07T23:05:38.152Z,0.90
2023-05-07T23:08:29.596Z,1.02
2023-05-07T23:11:21.100Z,0.90
2023-05-07T23:16:52.679Z,0.72
2023-05-07T23:19:43.841Z,0.90
2023-05-07T23:22:35.312Z,0.80
2023-05-07T23:25:26.712Z,0.70
2023-05-07T23:28:18.228Z,0.70
2023-05-07T23:31:10.641Z,0.75
2023-05-07T23:34:01.747Z,0.80
2023-05-07T23:36:53.162Z,0.80
2023-05-07T23:39:44.322Z,0.80
2023-05-07T23:42:35.973Z,0.80
2023-05-07T23:45:27.260Z,0.80
2023-05-07T23:48:18.811Z,0.70
2023-05-07T23:51:10.087Z,0.88
2023-05-07T23:54:01.559Z,0.75
2023-05-07T23:56:52.963Z,0.90
2023-05-07T23:59:44.434Z,0.90
